Time;durP1;ratioP1;P1;durP2;ratioP2;P2;SDS_P1;SDS_P2;PMS_P1;PMS_P2;Temp;Humidity;BMP_temperature;BMP_pressure;BME280_temperature;BME280_humidity;BME280_pressure;Samples;Min_cycle;Max_cycle;Signal;HPM_P1;HPM_P2
2023/03/07 06:00:42;;;;;;;12.73;11.43;;;3.90;97.20;;;;;;1701983;29;20275;-65
2023/03/07 06:01:33;;;;;;;11.07;9.93;;;3.90;97.20;;;;;;1701405;29;20211;-65
2023/03/07 06:02:25;;;;;;;13.50;10.67;;;3.90;97.20;;;;;;1701351;29;20199;-66
2023/03/07 06:03:16;;;;;;;13.27;10.45;;;3.90;97.20;;;;;;1701314;29;20451;-66
2023/03/07 06:04:08;;;;;;;12.13;10.00;;;3.90;97.20;;;;;;1701287;29;20239;-66
2023/03/07 06:04:59;;;;;;;11.07;9.88;;;3.90;97.20;;;;;;1701177;29;20222;-65
2023/03/07 06:05:50;;;;;;;12.68;10.60;;;3.90;97.20;;;;;;1701115;29;20628;-65
2023/03/07 06:06:42;;;;;;;12.13;10.70;;;3.90;97.20;;;;;;1701290;29;20585;-65
2023/03/07 06:07:33;;;;;;;10.77;9.63;;;3.90;97.20;;;;;;1702883;29;20447;-66
2023/03/07 06:08:24;;;;;;;10.70;9.40;;;3.90;97.20;;;;;;1707820;28;20203;-66
2023/03/07 06:09:15;;;;;;;12.35;9.85;;;3.90;97.20;;;;;;1707387;29;20201;-66
2023/03/07 06:10:08;;;;;;;13.47;11.40;;;3.90;97.20;;;;;;1707859;28;20223;-65
2023/03/07 06:10:59;;;;;;;11.77;9.75;;;3.90;97.20;;;;;;1707082;29;20499;-66
2023/03/07 06:11:51;;;;;;;11.00;9.83;;;3.90;97.20;;;;;;1707988;28;20200;-66
2023/03/07 06:12:41;;;;;;;12.52;10.55;;;3.90;97.20;;;;;;1707889;29;20245;-65
2023/03/07 06:13:33;;;;;;;11.30;10.10;;;3.90;97.20;;;;;;1707752;28;20212;-66
2023/03/07 06:14:24;;;;;;;12.73;11.43;;;3.90;97.20;;;;;;1707449;29;20207;-65
2023/03/07 06:15:16;;;;;;;10.90;9.80;;;3.90;97.20;;;;;;1707902;29;20605;-66
2023/03/07 06:16:08;;;;;;;13.10;10.25;;;3.90;97.20;;;;;;1707576;29;20206;-65
2023/03/07 06:17:00;;;;;;;10.55;9.35;;;3.90;97.20;;;;;;1707602;28;20577;-66
2023/03/07 06:17:51;;;;;;;10.57;9.55;;;3.90;97.20;;;;;;1707818;29;20237;-65
2023/03/07 06:18:43;;;;;;;11.40;9.65;;;3.90;97.20;;;;;;1707815;29;20226;-65
2023/03/07 06:19:33;;;;;;;11.93;10.70;;;3.90;97.20;;;;;;1707824;29;20202;-66
2023/03/07 06:20:25;;;;;;;11.00;9.77;;;4.00;97.20;;;;;;1705809;29;20199;-64
2023/03/07 06:21:17;;;;;;;11.60;9.80;;;3.90;97.20;;;;;;1704105;29;20200;-65
2023/03/07 06:22:09;;;;;;;11.95;10.48;;;3.90;97.20;;;;;;1703118;29;20195;-66
2023/03/07 06:22:59;;;;;;;11.82;10.13;;;3.90;97.20;;;;;;1701168;29;20234;-66
2023/03/07 06:23:51;;;;;;;11.63;9.70;;;3.90;97.20;;;;;;1701267;29;20253;-65
2023/03/07 06:24:42;;;;;;;11.73;9.95;;;3.90;97.20;;;;;;1701186;29;20964;-66
2023/03/07 06:25:34;;;;;;;13.98;9.77;;;4.00;97.20;;;;;;1701181;29;20245;-65
2023/03/07 06:26:25;;;;;;;12.57;10.10;;;4.00;97.20;;;;;;1700928;29;20203;-65
2023/03/07 06:27:16;;;;;;;12.60;11.10;;;4.00;97.20;;;;;;1701136;29;20207;-65
2023/03/07 06:28:07;;;;;;;10.68;9.55;;;4.00;97.20;;;;;;1701103;29;20210;-65
2023/03/07 06:28:59;;;;;;;12.40;10.10;;;4.00;97.20;;;;;;1701143;29;20214;-65
2023/03/07 06:29:50;;;;;;;10.93;9.83;;;4.00;97.20;;;;;;1706466;29;20309;-66
2023/03/07 06:30:42;;;;;;;15.10;10.33;;;4.00;97.20;;;;;;1707215;29;20230;-65
2023/03/07 06:31:34;;;;;;;10.70;9.60;;;4.00;97.20;;;;;;1707780;29;20206;-65
2023/03/07 06:32:26;;;;;;;11.13;10.00;;;4.00;97.20;;;;;;1707692;29;20574;-64
2023/03/07 06:33:16;;;;;;;11.68;9.73;;;4.00;97.20;;;;;;1707695;29;20202;-64
2023/03/07 06:34:08;;;;;;;12.13;10.10;;;4.00;97.20;;;;;;1707743;29;20207;-64
2023/03/07 06:34:59;;;;;;;11.80;9.18;;;4.00;97.20;;;;;;1707622;28;20475;-65
2023/03/07 06:35:50;;;;;;;11.87;10.73;;;4.00;97.20;;;;;;1707525;28;20209;-65
2023/03/07 06:36:41;;;;;;;11.48;10.23;;;4.00;97.20;;;;;;1707757;29;20267;-65
2023/03/07 06:37:33;;;;;;;11.80;10.07;;;4.00;97.20;;;;;;1707723;28;20211;-65
2023/03/07 06:38:24;;;;;;;11.85;10.57;;;4.10;97.20;;;;;;1707673;29;20233;-66
2023/03/07 06:39:20;;;;;;;11.90;10.30;;;4.10;97.20;;;;;;1707842;29;20664;-65
2023/03/07 06:40:11;;;;;;;13.80;10.55;;;4.10;97.20;;;;;;1701314;29;20347;-65
2023/03/07 06:41:03;;;;;;;11.55;10.35;;;4.10;97.20;;;;;;1701161;29;20199;-65
2023/03/07 06:41:53;;;;;;;11.70;10.13;;;4.10;97.20;;;;;;1701160;29;20214;-65
2023/03/07 06:42:45;;;;;;;12.60;10.10;;;4.10;97.20;;;;;;1701161;29;20239;-65
2023/03/07 06:43:36;;;;;;;11.95;9.93;;;4.10;97.20;;;;;;1701290;29;20207;-66
2023/03/07 06:44:28;;;;;;;12.30;9.93;;;4.10;97.20;;;;;;1712515;28;20252;-66
2023/03/07 06:45:18;;;;;;;12.68;10.32;;;4.20;97.20;;;;;;1707713;28;20478;-65
2023/03/07 06:46:10;;;;;;;10.83;9.73;;;4.20;97.20;;;;;;1703751;28;20217;-65
2023/03/07 06:47:02;;;;;;;13.80;10.55;;;4.20;97.20;;;;;;1705208;28;20261;-65
2023/03/07 06:47:54;;;;;;;11.43;9.00;;;4.20;97.20;;;;;;1707236;29;20249;-65
2023/03/07 06:48:45;;;;;;;12.45;10.73;;;4.20;97.20;;;;;;1707795;28;20204;-65
2023/03/07 06:49:37;;;;;;;11.73;10.40;;;4.20;97.20;;;;;;1707499;28;20208;-65
2023/03/07 06:50:27;;;;;;;11.23;10.10;;;4.30;97.20;;;;;;1707159;29;20269;-66
2023/03/07 06:51:19;;;;;;;12.03;9.33;;;4.30;97.20;;;;;;1707309;29;20206;-66
2023/03/07 06:52:10;;;;;;;11.25;9.68;;;4.30;97.20;;;;;;1707448;29;20202;-66
2023/03/07 06:53:01;;;;;;;11.70;10.27;;;4.30;97.20;;;;;;1711932;28;20194;-65
2023/03/07 06:53:52;;;;;;;11.85;9.52;;;4.30;97.20;;;;;;1714037;28;20711;-66
2023/03/07 06:54:44;;;;;;;11.20;10.00;;;4.30;97.20;;;;;;1714042;28;20555;-65
2023/03/07 06:55:35;;;;;;;11.07;9.45;;;4.40;97.20;;;;;;1714172;28;20206;-65
2023/03/07 06:56:28;;;;;;;10.87;9.53;;;4.40;97.20;;;;;;1713445;28;20201;-65
2023/03/07 06:57:19;;;;;;;11.60;10.40;;;4.40;97.20;;;;;;1707677;28;20948;-66
2023/03/07 06:58:11;;;;;;;11.03;9.80;;;4.40;97.20;;;;;;1707180;29;20661;-65
2023/03/07 06:59:01;;;;;;;11.63;9.55;;;4.40;97.20;;;;;;1707361;29;20214;-66
2023/03/07 06:59:53;;;;;;;9.80;8.80;;;4.40;97.20;;;;;;1707283;29;20306;-66
2023/03/07 07:00:44;;;;;;;10.38;8.27;;;4.50;97.20;;;;;;1707223;29;20470;-66
2023/03/07 07:01:36;;;;;;;12.07;10.23;;;4.50;97.20;;;;;;1707273;29;20206;-65
2023/03/07 07:02:28;;;;;;;11.85;9.63;;;4.50;97.20;;;;;;1707278;29;20454;-65
2023/03/07 07:03:20;;;;;;;12.05;10.05;;;4.50;97.20;;;;;;1707106;28;20334;-66
2023/03/07 07:04:11;;;;;;;10.63;9.27;;;4.60;97.20;;;;;;1707590;29;20213;-65
2023/03/07 07:05:03;;;;;;;10.70;9.03;;;4.60;97.20;;;;;;1710925;28;20204;-65
2023/03/07 07:05:54;;;;;;;10.85;9.50;;;4.70;97.20;;;;;;1712767;28;20624;-65
2023/03/07 07:06:45;;;;;;;11.13;9.70;;;4.70;97.20;;;;;;1707305;29;20202;-66
2023/03/07 07:07:36;;;;;;;11.57;9.82;;;4.70;97.20;;;;;;1706828;29;20226;-65
2023/03/07 07:08:28;;;;;;;10.33;9.23;;;4.70;97.20;;;;;;1706788;29;20194;-66
2023/03/07 07:09:19;;;;;;;10.90;9.80;;;4.80;97.20;;;;;;1706583;29;20245;-65
2023/03/07 07:10:12;;;;;;;10.37;8.83;;;4.80;97.20;;;;;;1707071;29;20207;-65
2023/03/07 07:11:03;;;;;;;11.95;10.73;;;4.80;97.20;;;;;;1706720;28;20214;-65
2023/03/07 07:11:54;;;;;;;11.70;10.50;;;4.90;97.20;;;;;;1706785;28;20206;-65
2023/03/07 07:12:45;;;;;;;10.95;9.40;;;4.90;97.20;;;;;;1706536;29;20454;-65
2023/03/07 07:13:37;;;;;;;10.10;8.93;;;5.00;97.20;;;;;;1707182;28;20207;-66
2023/03/07 07:14:27;;;;;;;10.55;9.52;;;5.00;97.20;;;;;;1707287;28;20695;-66
2023/03/07 07:15:19;;;;;;;10.90;8.90;;;5.00;97.20;;;;;;1707517;28;20668;-65
2023/03/07 07:16:10;;;;;;;12.95;9.30;;;5.00;97.20;;;;;;1707024;29;20209;-65
2023/03/07 07:17:02;;;;;;;12.30;9.15;;;5.00;97.20;;;;;;1707390;29;20202;-65
2023/03/07 07:17:54;;;;;;;10.60;9.05;;;5.10;97.20;;;;;;1707436;29;20237;-65
2023/03/07 07:18:46;;;;;;;10.90;9.60;;;5.10;97.20;;;;;;1706622;29;20210;-65
2023/03/07 07:19:37;;;;;;;11.20;9.98;;;5.10;97.20;;;;;;1702973;29;20230;-66
2023/03/07 07:20:29;;;;;;;11.93;10.30;;;5.10;97.20;;;;;;1702651;29;20218;-65
2023/03/07 07:21:19;;;;;;;13.30;11.88;;;5.10;97.20;;;;;;1704006;28;20227;-65
2023/03/07 07:22:11;;;;;;;13.40;11.30;;;5.10;97.20;;;;;;1703701;29;20191;-65
2023/03/07 07:23:02;;;;;;;11.80;10.50;;;5.10;97.20;;;;;;1702971;29;20244;-65
2023/03/07 07:23:56;;;;;;;12.50;10.80;;;5.20;97.20;;;;;;1703414;29;20255;-65
2023/03/07 07:24:47;;;;;;;12.05;10.50;;;5.20;97.20;;;;;;1704051;29;20203;-65
2023/03/07 07:25:39;;;;;;;12.50;11.20;;;5.20;97.20;;;;;;1702806;29;20190;-66
2023/03/07 07:26:30;;;;;;;12.65;9.48;;;5.20;97.20;;;;;;1703634;29;20200;-65
2023/03/07 07:27:21;;;;;;;12.27;10.03;;;5.20;97.20;;;;;;1704326;28;20226;-65
2023/03/07 07:28:13;;;;;;;10.98;9.77;;;5.30;97.20;;;;;;1703474;29;20207;-65
2023/03/07 07:29:05;;;;;;;13.00;10.20;;;5.30;97.20;;;;;;1702906;29;20205;-66
2023/03/07 07:29:55;;;;;;;14.55;9.70;;;5.30;97.20;;;;;;1706396;29;20626;-65
2023/03/07 07:30:47;;;;;;;10.40;9.40;;;5.40;97.20;;;;;;1704022;29;20286;-65
2023/03/07 07:31:38;;;;;;;10.80;9.05;;;5.40;97.20;;;;;;1702944;29;20473;-66
2023/03/07 07:32:30;;;;;;;9.60;8.70;;;5.40;97.20;;;;;;1703537;29;20197;-65
2023/03/07 07:33:22;;;;;;;11.20;10.05;;;5.40;97.20;;;;;;1704335;29;20206;-65
2023/03/07 07:34:13;;;;;;;10.75;9.65;;;5.40;97.20;;;;;;1703342;29;20210;-66
2023/03/07 07:35:05;;;;;;;10.73;9.23;;;5.40;97.20;;;;;;1703011;29;20205;-66
2023/03/07 07:35:57;;;;;;;10.93;9.80;;;5.40;97.20;;;;;;1702724;29;20471;-66
2023/03/07 07:36:48;;;;;;;14.32;9.18;;;5.40;97.20;;;;;;1703276;29;20203;-65
2023/03/07 07:37:40;;;;;;;9.97;8.93;;;5.40;97.20;;;;;;1704448;28;20282;-66
2023/03/07 07:38:30;;;;;;;10.98;9.88;;;5.40;97.20;;;;;;1703636;28;20198;-66
2023/03/07 07:39:23;;;;;;;10.97;9.70;;;5.40;97.20;;;;;;1702987;29;20240;-66
2023/03/07 07:40:14;;;;;;;9.75;8.80;;;5.50;97.20;;;;;;1703909;29;20214;-66
2023/03/07 07:41:05;;;;;;;11.53;9.67;;;5.50;97.20;;;;;;1704376;28;20219;-66
2023/03/07 07:41:56;;;;;;;11.23;9.65;;;5.50;97.20;;;;;;1703004;29;20450;-65
2023/03/07 07:42:53;;;;;;;12.77;9.60;;;5.60;97.20;;;;;;1703268;29;20274;-66
2023/03/07 07:43:45;;;;;;;11.48;9.23;;;5.60;97.20;;;;;;1704342;28;20622;-66
2023/03/07 07:44:37;;;;;;;10.73;9.40;;;5.60;97.20;;;;;;1702949;29;20218;-65
2023/03/07 07:45:28;;;;;;;10.70;9.60;;;5.60;97.20;;;;;;1703226;29;20709;-65
2023/03/07 07:46:19;;;;;;;10.67;9.53;;;5.60;97.20;;;;;;1704841;28;20574;-65
2023/03/07 07:47:10;;;;;;;10.80;9.70;;;5.70;97.20;;;;;;1704294;28;20230;-65
2023/03/07 07:48:02;;;;;;;12.20;9.70;;;5.70;97.20;;;;;;1704241;29;20221;-65
2023/03/07 07:48:54;;;;;;;10.52;9.43;;;5.80;97.20;;;;;;1706062;29;20214;-65
2023/03/07 07:49:46;;;;;;;11.48;9.13;;;5.80;97.20;;;;;;1704266;29;20290;-65
2023/03/07 07:50:37;;;;;;;9.95;8.65;;;5.90;97.20;;;;;;1702799;29;20266;-66
2023/03/07 07:51:29;;;;;;;10.40;9.40;;;6.00;97.20;;;;;;1703143;29;20237;-65
2023/03/07 07:52:19;;;;;;;11.25;10.15;;;6.00;97.20;;;;;;1704353;29;20198;-66
2023/03/07 07:53:11;;;;;;;10.20;8.90;;;6.10;97.20;;;;;;1703538;29;20186;-65
2023/03/07 07:54:02;;;;;;;10.75;9.75;;;6.10;97.20;;;;;;1702862;29;20203;-65
2023/03/07 07:54:55;;;;;;;9.83;8.83;;;6.10;97.20;;;;;;1703893;29;20213;-66
2023/03/07 07:55:47;;;;;;;10.35;8.82;;;6.20;97.20;;;;;;1703899;29;20206;-65
2023/03/07 07:56:40;;;;;;;10.52;9.15;;;6.30;97.20;;;;;;1702425;29;20199;-65
2023/03/07 07:57:30;;;;;;;10.50;8.88;;;6.40;97.20;;;;;;1703544;29;20210;-65
2023/03/07 07:58:22;;;;;;;10.40;9.27;;;6.40;97.20;;;;;;1704256;28;20215;-65
2023/03/07 07:59:13;;;;;;;10.98;9.85;;;6.50;97.20;;;;;;1703461;29;20244;-65
2023/03/07 08:00:05;;;;;;;11.20;9.90;;;6.60;97.20;;;;;;1703106;29;20198;-65
2023/03/07 08:00:57;;;;;;;11.00;9.90;;;6.60;97.20;;;;;;1705729;29;20462;-66
2023/03/07 08:01:48;;;;;;;10.27;9.15;;;6.70;97.20;;;;;;1703848;29;20561;-65
2023/03/07 08:02:40;;;;;;;10.73;9.33;;;6.80;97.20;;;;;;1702846;29;20213;-65
2023/03/07 08:03:30;;;;;;;10.07;8.98;;;6.80;97.20;;;;;;1703454;29;20202;-65
2023/03/07 08:04:24;;;;;;;11.00;9.40;;;6.90;97.20;;;;;;1704252;29;20199;-65
2023/03/07 08:05:15;;;;;;;11.60;9.38;;;6.90;97.20;;;;;;1702956;29;20206;-65
2023/03/07 08:06:07;;;;;;;11.65;10.32;;;7.00;97.20;;;;;;1702678;29;20208;-66
2023/03/07 08:06:58;;;;;;;10.52;9.48;;;7.10;97.20;;;;;;1704866;28;20199;-66
2023/03/07 08:07:50;;;;;;;9.87;8.87;;;7.20;97.20;;;;;;1703807;29;20200;-66
2023/03/07 08:08:41;;;;;;;11.20;9.00;;;7.30;97.20;;;;;;1702964;29;20206;-65
2023/03/07 08:09:34;;;;;;;10.43;9.40;;;7.30;97.20;;;;;;1703700;29;20227;-65
2023/03/07 08:10:24;;;;;;;11.90;9.82;;;7.30;97.20;;;;;;1704224;29;20947;-66
2023/03/07 08:11:17;;;;;;;10.83;9.83;;;7.40;97.20;;;;;;1702801;29;20638;-66
2023/03/07 08:12:10;;;;;;;11.82;10.60;;;7.40;97.20;;;;;;1703061;29;20474;-65
2023/03/07 08:13:02;;;;;;;10.23;9.13;;;7.40;97.20;;;;;;1703991;29;20218;-65
2023/03/07 08:13:52;;;;;;;11.13;9.70;;;7.50;97.20;;;;;;1704271;29;20206;-66
2023/03/07 08:14:44;;;;;;;13.43;9.97;;;7.60;97.20;;;;;;1707221;29;20208;-65
2023/03/07 08:15:35;;;;;;;10.13;8.98;;;7.70;97.20;;;;;;1706912;29;20230;-65
2023/03/07 08:16:27;;;;;;;10.02;9.02;;;7.80;97.20;;;;;;1707226;29;20209;-65
2023/03/07 08:17:19;;;;;;;10.68;9.48;;;7.80;97.20;;;;;;1706509;29;20232;-65
2023/03/07 08:18:10;;;;;;;11.35;9.82;;;7.90;97.20;;;;;;1706611;29;20696;-65
2023/03/07 08:19:07;;;;;;;10.37;9.27;;;7.90;97.20;;;;;;1706495;29;20692;-65
2023/03/07 08:20:02;;;;;;;13.23;9.88;;;7.90;97.20;;;;;;1706839;28;20214;-66
2023/03/07 08:20:54;;;;;;;9.85;8.70;;;8.00;97.20;;;;;;1707281;29;20313;-65
2023/03/07 08:21:44;;;;;;;10.13;9.13;;;8.10;97.20;;;;;;1707056;29;20583;-65
2023/03/07 08:22:36;;;;;;;10.03;9.07;;;8.20;97.20;;;;;;1707118;29;20198;-66
2023/03/07 08:23:27;;;;;;;10.25;9.15;;;8.20;97.20;;;;;;1707179;29;20203;-65
2023/03/07 08:24:19;;;;;;;11.00;9.30;;;8.20;97.20;;;;;;1706959;28;20202;-65
2023/03/07 08:25:16;;;;;;;11.98;9.38;;;8.30;97.20;;;;;;1706609;29;20306;-65
2023/03/07 08:26:09;;;;;;;10.70;9.55;;;8.30;97.20;;;;;;1706896;29;20199;-65
2023/03/07 08:27:00;;;;;;;10.52;9.48;;;8.30;97.20;;;;;;1707136;29;20668;-65
2023/03/07 08:27:54;;;;;;;11.97;8.97;;;8.30;97.20;;;;;;1707344;29;20652;-65
2023/03/07 08:28:45;;;;;;;11.45;10.07;;;8.30;97.20;;;;;;1707188;29;20789;-65
2023/03/07 08:29:37;;;;;;;13.27;10.15;;;8.40;97.20;;;;;;1707177;28;20199;-65
2023/03/07 08:30:29;;;;;;;11.95;10.55;;;8.40;97.20;;;;;;1707015;29;20203;-65
2023/03/07 08:31:23;;;;;;;10.30;9.30;;;8.30;97.20;;;;;;1707051;29;20229;-65
2023/03/07 08:32:14;;;;;;;10.88;9.48;;;8.30;97.20;;;;;;1707253;28;20590;-65
2023/03/07 08:33:06;;;;;;;10.90;9.80;;;8.20;97.20;;;;;;1707235;29;20658;-66
2023/03/07 08:33:56;;;;;;;14.13;9.77;;;8.20;97.20;;;;;;1707188;29;20679;-66
2023/03/07 08:34:48;;;;;;;10.13;9.13;;;8.30;97.20;;;;;;1707365;29;20570;-65
2023/03/07 08:35:40;;;;;;;10.65;9.55;;;8.40;97.20;;;;;;1706889;29;20203;-65
2023/03/07 08:36:32;;;;;;;10.50;9.40;;;8.40;97.20;;;;;;1707242;29;20688;-65
2023/03/07 08:37:24;;;;;;;10.85;9.80;;;8.40;97.20;;;;;;1707091;29;20198;-65
2023/03/07 08:38:14;;;;;;;10.45;9.30;;;8.50;97.20;;;;;;1706655;29;20206;-65
2023/03/07 08:39:06;;;;;;;10.27;9.27;;;8.60;97.20;;;;;;1707234;29;20203;-65
2023/03/07 08:39:57;;;;;;;10.75;9.15;;;8.60;97.20;;;;;;1706934;29;20213;-65
2023/03/07 08:40:48;;;;;;;11.53;10.00;;;8.70;97.20;;;;;;1707266;28;20219;-65
2023/03/07 08:41:39;;;;;;;10.93;9.35;;;8.70;97.20;;;;;;1707116;29;20230;-65
2023/03/07 08:42:31;;;;;;;9.80;8.70;;;8.80;97.20;;;;;;1707159;28;20203;-65
2023/03/07 08:43:21;;;;;;;9.63;8.68;;;8.80;97.20;;;;;;1706995;29;20249;-66
2023/03/07 08:44:13;;;;;;;11.13;9.93;;;8.90;97.20;;;;;;1707315;28;20217;-65
2023/03/07 08:45:04;;;;;;;10.50;9.07;;;8.90;97.20;;;;;;1707096;29;20234;-66
2023/03/07 08:45:56;;;;;;;11.85;9.60;;;8.90;97.20;;;;;;1706774;29;20209;-66
2023/03/07 08:46:47;;;;;;;10.23;9.23;;;8.90;97.20;;;;;;1707091;29;20214;-66
2023/03/07 08:47:39;;;;;;;11.07;9.37;;;8.90;97.20;;;;;;1707115;28;20207;-65
2023/03/07 08:48:30;;;;;;;11.10;9.90;;;9.00;97.20;;;;;;1707068;29;20207;-65
2023/03/07 08:49:21;;;;;;;10.15;8.93;;;8.90;97.20;;;;;;1707148;29;20237;-66
2023/03/07 08:50:12;;;;;;;11.73;9.10;;;9.00;97.20;;;;;;1707027;29;20206;-65
2023/03/07 08:51:07;;;;;;;13.30;9.93;;;9.00;97.20;;;;;;1707024;28;20199;-65
2023/03/07 08:51:58;;;;;;;11.00;9.10;;;9.10;97.20;;;;;;1707047;29;20210;-65
2023/03/07 08:52:49;;;;;;;10.67;9.23;;;9.20;97.20;;;;;;1707263;29;20209;-66
2023/03/07 08:53:41;;;;;;;12.15;9.60;;;9.30;97.20;;;;;;1707049;29;20674;-66
2023/03/07 08:54:33;;;;;;;10.75;9.10;;;9.40;97.20;;;;;;1706951;29;20198;-66
2023/03/07 08:55:24;;;;;;;10.55;9.55;;;9.50;97.20;;;;;;1700612;29;20598;-65
2023/03/07 08:56:20;;;;;;;10.17;8.63;;;9.60;97.20;;;;;;1705323;29;20566;-66
2023/03/07 08:57:11;;;;;;;10.23;8.95;;;9.70;97.20;;;;;;1707136;29;20446;-66
2023/03/07 08:58:03;;;;;;;9.57;8.67;;;9.80;97.20;;;;;;1707135;28;20273;-66
2023/03/07 08:58:53;;;;;;;9.27;8.48;;;9.90;97.20;;;;;;1707142;28;20206;-65
2023/03/07 08:59:45;;;;;;;10.77;9.10;;;10.00;97.20;;;;;;1707170;29;20668;-65
2023/03/07 09:00:36;;;;;;;10.25;8.77;;;10.10;97.20;;;;;;1707080;29;20226;-65
2023/03/07 09:01:28;;;;;;;9.70;8.70;;;10.20;97.20;;;;;;1707223;29;20290;-65
2023/03/07 09:02:19;;;;;;;8.82;7.90;;;10.30;97.20;;;;;;1707065;29;20210;-65
2023/03/07 09:03:10;;;;;;;9.80;8.80;;;10.40;97.20;;;;;;1707127;28;20206;-65
2023/03/07 09:04:01;;;;;;;9.50;8.55;;;10.50;97.20;;;;;;1707070;29;20244;-66
2023/03/07 09:04:53;;;;;;;10.10;8.83;;;10.50;97.20;;;;;;1707134;29;20213;-65
2023/03/07 09:05:44;;;;;;;10.02;9.02;;;10.70;97.20;;;;;;1706848;29;20457;-66
2023/03/07 09:06:37;;;;;;;11.23;9.30;;;10.60;97.20;;;;;;1707069;28;20213;-65
2023/03/07 09:07:28;;;;;;;9.63;8.60;;;10.60;97.20;;;;;;1707062;28;20257;-66
2023/03/07 09:08:19;;;;;;;10.50;9.40;;;10.60;97.20;;;;;;1707058;28;20198;-65
2023/03/07 09:09:10;;;;;;;11.93;9.30;;;10.60;97.20;;;;;;1708316;29;20202;-66
2023/03/07 09:10:03;;;;;;;10.53;9.53;;;10.60;97.20;;;;;;1708260;29;20207;-65
2023/03/07 09:10:54;;;;;;;9.30;8.38;;;10.60;97.20;;;;;;1708064;29;20506;-65
2023/03/07 09:11:45;;;;;;;10.43;9.02;;;10.60;97.20;;;;;;1708142;29;20223;-66
2023/03/07 09:12:36;;;;;;;9.60;8.40;;;10.60;97.20;;;;;;1708257;29;20322;-65
2023/03/07 09:13:28;;;;;;;9.50;8.50;;;10.50;97.20;;;;;;1708247;29;20203;-65
2023/03/07 09:14:19;;;;;;;8.82;7.93;;;10.40;97.20;;;;;;1708151;29;20210;-65
2023/03/07 09:15:11;;;;;;;9.87;8.87;;;10.30;97.20;;;;;;1708275;29;20202;-65
2023/03/07 09:16:03;;;;;;;9.50;8.50;;;10.20;97.20;;;;;;1707949;28;20253;-65
2023/03/07 09:16:55;;;;;;;9.40;7.97;;;10.10;97.20;;;;;;1708212;29;20206;-65
2023/03/07 09:17:46;;;;;;;8.90;8.10;;;9.90;97.20;;;;;;1708232;29;20206;-65
2023/03/07 09:18:38;;;;;;;8.57;7.70;;;9.80;97.20;;;;;;1708326;29;20194;-65
2023/03/07 09:19:28;;;;;;;9.45;7.82;;;9.70;97.20;;;;;;1708177;29;20470;-65
2023/03/07 09:20:20;;;;;;;9.70;8.70;;;9.60;97.20;;;;;;1708142;29;20221;-65
2023/03/07 09:21:11;;;;;;;9.13;8.10;;;9.50;97.20;;;;;;1708182;29;20206;-65
2023/03/07 09:22:04;;;;;;;8.93;8.03;;;9.50;97.20;;;;;;1708186;28;20203;-66
2023/03/07 09:22:55;;;;;;;10.63;8.35;;;9.40;97.20;;;;;;1708356;28;20210;-66
2023/03/07 09:23:46;;;;;;;8.67;7.43;;;9.30;97.20;;;;;;1708296;29;20203;-65
2023/03/07 09:24:37;;;;;;;8.80;7.90;;;9.10;97.20;;;;;;1708130;29;20241;-65
2023/03/07 09:25:30;;;;;;;11.60;8.20;;;9.00;97.20;;;;;;1708213;29;20209;-65
2023/03/07 09:26:20;;;;;;;7.65;6.85;;;8.90;97.20;;;;;;1707881;28;20206;-66
2023/03/07 09:27:12;;;;;;;8.83;7.97;;;8.80;97.20;;;;;;1707838;29;20253;-66
2023/03/07 09:28:03;;;;;;;9.90;8.20;;;8.70;97.20;;;;;;1708184;29;20206;-65
2023/03/07 09:28:54;;;;;;;8.70;7.80;;;8.60;97.20;;;;;;1708166;29;20201;-65
2023/03/07 09:29:46;;;;;;;9.25;7.70;;;8.50;97.20;;;;;;1708131;29;20821;-65
2023/03/07 09:30:38;;;;;;;8.35;7.47;;;8.50;97.20;;;;;;1708010;28;20234;-65
2023/03/07 09:31:28;;;;;;;9.73;7.15;;;8.40;97.20;;;;;;1708077;29;20237;-65
2023/03/07 09:32:20;;;;;;;8.30;7.23;;;8.40;97.20;;;;;;1708136;28;20206;-65
2023/03/07 09:33:11;;;;;;;8.30;7.50;;;8.30;97.20;;;;;;1708144;29;20203;-66
2023/03/07 09:34:04;;;;;;;8.87;7.97;;;8.30;97.20;;;;;;1708122;29;20198;-65
2023/03/07 09:34:55;;;;;;;7.47;6.78;;;8.20;97.20;;;;;;1708201;29;20450;-65
2023/03/07 09:35:46;;;;;;;9.00;7.90;;;8.10;97.20;;;;;;1707876;28;20234;-66
2023/03/07 09:36:37;;;;;;;8.65;7.85;;;8.00;97.20;;;;;;1708108;29;20206;-65
2023/03/07 09:37:30;;;;;;;8.50;7.60;;;8.00;97.20;;;;;;1708157;29;20204;-65
2023/03/07 09:38:21;;;;;;;9.00;7.93;;;7.90;97.20;;;;;;1708222;29;20206;-65
2023/03/07 09:39:13;;;;;;;8.97;7.57;;;7.90;97.20;;;;;;1708337;28;20203;-65
2023/03/07 09:40:06;;;;;;;8.70;7.80;;;7.80;97.20;;;;;;1708067;29;20738;-65
2023/03/07 09:41:07;;;;;;;8.60;7.80;;;7.80;97.20;;;;;;1707975;28;20230;-65
2023/03/07 09:42:08;;;;;;;9.10;7.78;;;7.70;97.20;;;;;;1708161;29;20231;-65
2023/03/07 09:43:06;;;;;;;8.30;7.18;;;7.70;97.20;;;;;;1708140;29;20207;-65
2023/03/07 09:44:05;;;;;;;8.52;7.55;;;7.60;97.20;;;;;;1708097;29;20203;-65
2023/03/07 09:45:19;;;;;;;9.13;8.23;;;7.50;97.20;;;;;;1708298;29;20210;-65
2023/03/07 09:46:19;;;;;;;9.07;8.27;;;7.40;97.20;;;;;;1707929;28;20207;-65
2023/03/07 09:47:24;;;;;;;8.82;7.78;;;7.30;97.20;;;;;;1708042;29;20203;-65
2023/03/07 09:48:44;;;;;;;9.45;7.88;;;7.30;97.20;;;;;;1708048;29;20202;-65
2023/03/07 09:49:43;;;;;;;9.10;8.20;;;7.20;97.20;;;;;;1705925;29;20203;-65
2023/03/07 09:50:43;;;;;;;8.02;7.22;;;7.20;97.20;;;;;;1707908;29;20233;-65
2023/03/07 09:51:38;;;;;;;8.10;7.30;;;7.20;97.20;;;;;;1708009;29;20202;-65
2023/03/07 09:52:36;;;;;;;8.70;7.82;;;7.20;97.20;;;;;;1708061;29;20253;-65
2023/03/07 09:53:35;;;;;;;8.88;8.00;;;7.20;97.20;;;;;;1708026;29;20203;-65
2023/03/07 09:54:37;;;;;;;8.82;7.93;;;7.20;97.20;;;;;;1708028;29;20229;-65
2023/03/07 09:55:29;;;;;;;10.13;8.57;;;7.10;97.20;;;;;;1708033;29;20688;-65
2023/03/07 09:56:27;;;;;;;18.48;9.93;;;7.10;97.20;;;;;;1707715;29;20665;-65
2023/03/07 09:57:23;;;;;;;8.98;8.07;;;7.00;97.20;;;;;;1707933;29;20202;-65
2023/03/07 09:58:18;;;;;;;10.63;8.30;;;6.90;97.20;;;;;;1708029;29;20625;-65
2023/03/07 09:59:21;;;;;;;10.20;9.20;;;6.90;97.20;;;;;;1707964;29;20238;-66
2023/03/07 10:00:19;;;;;;;9.57;8.55;;;6.80;97.20;;;;;;1707668;29;20203;-65
2023/03/07 10:01:13;;;;;;;9.15;8.15;;;6.80;97.20;;;;;;1707990;29;20213;-65
2023/03/07 10:02:14;;;;;;;12.30;8.80;;;6.70;97.20;;;;;;1707777;29;20673;-65
2023/03/07 10:03:18;;;;;;;9.80;8.32;;;6.70;97.20;;;;;;1707944;29;20233;-66
2023/03/07 10:04:19;;;;;;;9.45;8.45;;;6.70;97.20;;;;;;1708057;29;20230;-65
2023/03/07 10:05:21;;;;;;;9.95;7.43;;;6.60;97.20;;;;;;1708038;29;20584;-65
2023/03/07 10:06:15;;;;;;;9.27;8.20;;;6.60;97.20;;;;;;1707879;28;20588;-66
2023/03/07 10:07:09;;;;;;;9.55;8.50;;;6.60;97.20;;;;;;1707807;29;20205;-66
2023/03/07 10:08:04;;;;;;;9.00;8.00;;;6.50;97.20;;;;;;1707909;29;20304;-65
2023/03/07 10:08:57;;;;;;;9.40;8.35;;;6.50;97.20;;;;;;1707956;29;20219;-66
2023/03/07 10:09:59;;;;;;;9.25;8.35;;;6.50;97.20;;;;;;1707945;28;20206;-66
2023/03/07 10:10:59;;;;;;;10.82;9.05;;;6.50;97.20;;;;;;1707863;29;20242;-65
2023/03/07 10:12:04;;;;;;;9.18;8.13;;;6.50;97.20;;;;;;1707888;29;20230;-65
2023/03/07 10:13:18;;;;;;;9.93;8.93;;;6.50;97.20;;;;;;1707940;29;20207;-66
2023/03/07 10:14:33;;;;;;;9.43;8.52;;;6.50;97.20;;;;;;1707893;28;20660;-65
2023/03/07 10:15:37;;;;;;;10.00;8.90;;;6.50;97.20;;;;;;1707881;29;20210;-65
2023/03/07 10:16:35;;;;;;;8.90;7.93;;;6.60;97.20;;;;;;1707885;29;20198;-66
2023/03/07 10:17:44;;;;;;;9.77;8.52;;;6.60;97.20;;;;;;1707626;29;20566;-66
2023/03/07 10:19:00;;;;;;;10.15;9.15;;;6.60;97.20;;;;;;1707648;29;20218;-65
2023/03/07 10:20:00;;;;;;;10.55;8.65;;;6.70;97.20;;;;;;1707584;28;20210;-65
2023/03/07 10:20:58;;;;;;;9.52;8.63;;;6.70;97.20;;;;;;1707825;29;20763;-65
2023/03/07 10:21:58;;;;;;;9.40;8.45;;;6.70;97.20;;;;;;1707866;28;20218;-65
2023/03/07 10:22:57;;;;;;;10.05;8.70;;;6.70;97.20;;;;;;1708031;28;20210;-66
2023/03/07 10:24:22;;;;;;;9.63;8.32;;;6.70;97.20;;;;;;1707886;29;20202;-66
2023/03/07 10:25:19;;;;;;;12.27;9.07;;;6.70;97.20;;;;;;1707817;29;20607;-65
2023/03/07 10:26:12;;;;;;;9.25;8.30;;;6.70;97.20;;;;;;1707598;29;20669;-65
2023/03/07 10:27:05;;;;;;;11.18;8.98;;;6.70;97.20;;;;;;1707710;29;20242;-65
2023/03/07 10:28:07;;;;;;;8.88;7.97;;;6.70;97.20;;;;;;1707659;29;20210;-66
2023/03/07 10:29:00;;;;;;;10.25;8.50;;;6.70;97.20;;;;;;1707791;29;20210;-65
2023/03/07 10:29:54;;;;;;;9.00;7.95;;;6.70;97.20;;;;;;1707727;29;20206;-65
2023/03/07 10:30:46;;;;;;;10.27;9.07;;;6.70;97.20;;;;;;1706538;29;20276;-65
2023/03/07 10:31:41;;;;;;;8.88;8.05;;;6.70;97.20;;;;;;1707581;28;20220;-65
2023/03/07 10:32:38;;;;;;;9.02;8.05;;;6.70;97.20;;;;;;1706870;28;20203;-65
2023/03/07 10:33:30;;;;;;;9.60;8.60;;;6.70;97.20;;;;;;1707608;28;20238;-65
2023/03/07 10:34:25;;;;;;;8.73;7.80;;;6.70;97.20;;;;;;1707785;28;20611;-65
2023/03/07 10:35:19;;;;;;;10.05;8.40;;;6.80;97.20;;;;;;1707752;28;20198;-65
2023/03/07 10:36:14;;;;;;;10.65;9.30;;;6.70;97.20;;;;;;1707449;28;20206;-65
2023/03/07 10:37:13;;;;;;;9.23;8.32;;;6.70;97.20;;;;;;1707661;28;20241;-65